Old Hickory Observed Data For Previous 48 Hours

Caption
Day and Hour Reservoir Elevation (behind dam)* Tailwater Elevation (below dam)* Average Hourly Discharge*
11/11/2018 1 AM CST 444.89 396.68 26,400
11/11/2018 2 AM CST 444.89 396.65 26,400
11/11/2018 3 AM CST 444.88 396.60 26,400
11/11/2018 4 AM CST 444.88 396.55 26,400
11/11/2018 5 AM CST 444.88 396.50 26,400
11/11/2018 6 AM CST 444.87 396.45 26,400
11/11/2018 7 AM CST 444.83 396.48 26,400
11/11/2018 8 AM CST 444.78 396.69 26,600
11/11/2018 9 AM CST - 999.00 - 999.00 26,600
11/11/2018 10 AM CST 444.73 396.93 26,600
11/11/2018 11 AM CST 444.73 396.97 26,600
11/11/2018 12 PM CST 444.79 397.03 26,600
11/11/2018 1 PM CST 444.79 397.03 26,600
11/11/2018 2 PM CST 444.79 397.03 26,600
11/11/2018 3 PM CST 444.79 397.03 26,600
11/11/2018 4 PM CST 444.79 397.03 26,600
11/11/2018 5 PM CST 444.79 397.03 26,600
11/11/2018 6 PM CST 444.79 397.03 26,600
11/11/2018 7 PM CST 444.86 396.81 26,600
11/11/2018 8 PM CST 444.83 396.87 26,600
11/11/2018 9 PM CST 444.81 396.94 26,600
11/11/2018 10 PM CST 444.79 396.91 26,600
11/11/2018 11 PM CST 444.77 396.87 26,600
11/12/2018 12 AM CST 444.75 396.82 26,600
11/12/2018 1 AM CST 444.73 396.77 26,600
11/12/2018 2 AM CST 444.71 396.71 26,600
11/12/2018 3 AM CST 444.70 396.65 26,600
11/12/2018 4 AM CST 444.68 396.59 26,600
11/12/2018 5 AM CST 444.67 396.52 26,600
11/12/2018 6 AM CST 444.66 396.50 26,600
11/12/2018 7 AM CST 444.61 396.52 26,600
11/12/2018 8 AM CST 444.55 396.64 26,600
11/12/2018 9 AM CST 444.54 396.76 26,600
11/12/2018 10 AM CST 444.52 396.91 26,700
11/12/2018 11 AM CST 444.52 396.91 26,700
11/12/2018 12 PM CST 444.52 396.91 26,700
11/12/2018 1 PM CST 444.57 397.03 26,700
11/12/2018 2 PM CST 444.57 397.03 26,700
11/12/2018 3 PM CST 444.61 397.08 26,700
11/12/2018 4 PM CST 444.64 397.13 26,700
11/12/2018 5 PM CST 444.64 397.13 26,700
11/12/2018 6 PM CST 444.64 397.13 26,700
11/12/2018 7 PM CST 444.61 397.25 26,700
11/12/2018 8 PM CST 444.58 397.21 26,700
11/12/2018 9 PM CST 444.54 397.17 26,700
11/12/2018 10 PM CST 444.50 397.15 26,700
11/12/2018 11 PM CST 444.50 397.15 26,700
11/13/2018 12 AM CST 444.50 397.15 26,700
11/13/2018 1 AM CST 444.44 396.90 16,700
11/13/2018 2 AM CST 444.46 396.82 16,700
11/13/2018 3 AM CST 444.43 396.77 16,700
11/13/2018 4 AM CST 444.45 396.67 16,700
11/13/2018 5 AM CST 444.47 396.56 16,700
11/13/2018 6 AM CST 444.45 396.54 16,700
11/13/2018 7 AM CST 444.39 396.67 26,600
11/13/2018 8 AM CST 444.34 396.81 26,600
11/13/2018 9 AM CST 444.31 396.88 26,600

Elevations are in feet above sea level. Discharges are in cubic feet per second and are reported at the end of the hour.